createdAt,value
2023-04-05T00:01:37.789Z,2.43
2023-04-05T00:04:08.126Z,2.80
2023-04-05T00:06:37.891Z,2.50
2023-04-05T00:09:08.006Z,3.00
2023-04-05T00:11:37.803Z,2.80
2023-04-05T00:14:07.480Z,2.00
2023-04-05T00:16:36.451Z,2.40
2023-04-05T00:19:05.911Z,2.40
2023-04-05T00:21:34.657Z,2.50
2023-04-05T00:24:02.905Z,2.50
2023-04-05T00:26:32.754Z,2.23
2023-04-05T00:29:02.340Z,2.50
2023-04-05T00:31:31.046Z,2.33
2023-04-05T00:33:59.443Z,2.20
2023-04-05T00:36:27.837Z,2.43
2023-04-05T00:38:56.563Z,2.33
2023-04-05T00:41:25.209Z,2.13
2023-04-05T00:43:53.698Z,2.53
2023-04-05T00:46:23.801Z,2.07
2023-04-05T00:48:52.272Z,2.30
2023-04-05T00:51:20.538Z,1.70
2023-04-05T00:53:53.198Z,2.27
2023-04-05T00:56:23.119Z,1.90
2023-04-05T00:58:52.295Z,2.10
2023-04-05T01:01:23.594Z,2.23
2023-04-05T01:03:55.503Z,2.60
2023-04-05T01:06:44.866Z,2.20
2023-04-05T01:09:25.362Z,2.20
2023-04-05T01:11:56.933Z,2.40
2023-04-05T01:14:45.678Z,2.20
2023-04-05T01:17:16.653Z,2.07
2023-04-05T01:19:48.423Z,1.87
2023-04-05T01:22:49.379Z,1.97
2023-04-05T01:25:31.586Z,2.10
2023-04-05T01:28:29.105Z,2.57
2023-04-05T01:31:08.344Z,2.10
2023-04-05T01:33:43.445Z,2.07
2023-04-05T01:36:19.169Z,2.10
2023-04-05T01:38:51.739Z,2.03
2023-04-05T01:41:21.605Z,2.13
2023-04-05T01:43:52.714Z,2.40
2023-04-05T01:46:22.826Z,2.20
2023-04-05T01:48:52.039Z,2.60
2023-04-05T01:51:20.457Z,2.37
2023-04-05T01:53:49.151Z,2.47
2023-04-05T01:56:17.371Z,2.17
2023-04-05T01:58:45.801Z,2.20
2023-04-05T02:01:14.201Z,2.10
2023-04-05T02:03:44.469Z,1.93
2023-04-05T02:06:12.795Z,2.13
2023-04-05T02:08:41.187Z,2.30
2023-04-05T02:11:09.759Z,2.60
2023-04-05T02:13:39.623Z,2.00
2023-04-05T02:16:08.275Z,2.37
2023-04-05T02:18:38.751Z,2.13
2023-04-05T02:21:12.079Z,2.30
2023-04-05T02:23:40.382Z,2.40
2023-04-05T02:26:08.547Z,2.10
2023-04-05T02:28:36.888Z,2.40
2023-04-05T02:31:11.140Z,2.83
2023-04-05T02:33:39.730Z,2.03
2023-04-05T02:36:09.486Z,2.30
2023-04-05T02:38:39.757Z,3.03
2023-04-05T02:41:13.039Z,2.50
2023-04-05T02:43:41.328Z,2.03
2023-04-05T02:46:11.417Z,2.67
2023-04-05T02:48:40.178Z,2.20
2023-04-05T02:51:09.629Z,2.20
2023-04-05T02:53:39.869Z,2.30
2023-04-05T02:56:08.658Z,2.30
2023-04-05T02:58:36.955Z,2.50
2023-04-05T03:01:08.932Z,2.80
2023-04-05T03:03:37.507Z,2.13
2023-04-05T03:06:10.427Z,2.80
2023-04-05T03:08:44.636Z,2.43
2023-04-05T03:11:13.313Z,2.20
2023-04-05T03:13:43.551Z,2.30
2023-04-05T03:16:12.871Z,2.23
2023-04-05T03:18:41.265Z,2.10
2023-04-05T03:21:12.428Z,2.13
2023-04-05T03:23:43.165Z,2.53
2023-04-05T03:26:11.393Z,2.37
2023-04-05T03:28:45.382Z,2.30
2023-04-05T03:31:14.933Z,2.40
2023-04-05T03:33:45.737Z,2.80
2023-04-05T03:36:16.656Z,2.37
2023-04-05T03:38:48.234Z,2.60
2023-04-05T03:41:16.728Z,2.57
2023-04-05T03:43:47.573Z,2.60
2023-04-05T03:46:16.441Z,2.63
2023-04-05T03:48:50.864Z,2.93
2023-04-05T03:51:20.972Z,2.50
2023-04-05T03:53:52.718Z,2.43
2023-04-05T03:56:21.118Z,2.20
2023-04-05T03:58:49.431Z,2.97
2023-04-05T04:01:18.543Z,2.73
2023-04-05T04:03:47.509Z,2.40
2023-04-05T04:06:18.629Z,2.40
2023-04-05T04:08:47.597Z,2.60
2023-04-05T04:11:17.249Z,2.30
2023-04-05T04:13:45.867Z,2.60
2023-04-05T04:16:14.187Z,2.70
2023-04-05T04:18:43.030Z,2.70
2023-04-05T04:21:13.775Z,2.77
2023-04-05T04:23:46.309Z,2.93
2023-04-05T04:26:14.971Z,2.60
2023-04-05T04:28:45.828Z,2.90
2023-04-05T04:31:14.941Z,2.50
2023-04-05T04:33:43.880Z,3.10
2023-04-05T04:36:14.029Z,2.57
2023-04-05T04:38:44.499Z,2.97
2023-04-05T04:41:13.219Z,2.30
2023-04-05T04:43:44.810Z,2.60
2023-04-05T04:46:16.063Z,2.73
2023-04-05T04:48:44.239Z,3.10
2023-04-05T04:51:12.409Z,2.50
2023-04-05T04:53:50.025Z,3.23
2023-04-05T04:56:18.354Z,2.17
2023-04-05T04:58:46.732Z,2.53
2023-04-05T05:01:16.972Z,3.10
2023-04-05T05:03:45.607Z,2.60
2023-04-05T05:06:18.243Z,2.60
2023-04-05T05:08:47.659Z,3.13
2023-04-05T05:11:16.745Z,2.43
2023-04-05T05:13:47.636Z,3.00
2023-04-05T05:16:21.804Z,2.70
2023-04-05T05:18:51.354Z,2.57
2023-04-05T05:21:19.558Z,2.37
2023-04-05T05:23:48.264Z,2.80
2023-04-05T05:26:16.811Z,1.83
2023-04-05T05:28:46.107Z,2.30
2023-04-05T05:31:18.360Z,1.57
2023-04-05T05:33:50.190Z,2.43
2023-04-05T05:36:20.238Z,2.23
2023-04-05T05:38:49.305Z,1.90
2023-04-05T05:41:17.629Z,1.80
2023-04-05T05:43:47.437Z,1.60
2023-04-05T05:46:23.780Z,2.03
2023-04-05T05:48:56.964Z,1.80
2023-04-05T05:51:25.587Z,1.87
2023-04-05T05:53:53.812Z,1.80
2023-04-05T05:56:22.699Z,2.30
2023-04-05T05:58:53.645Z,1.80
2023-04-05T06:01:23.144Z,2.30
2023-04-05T06:03:56.636Z,2.10
2023-04-05T06:06:26.567Z,2.00
2023-04-05T06:08:54.739Z,1.73
2023-04-05T06:11:25.171Z,2.00
2023-04-05T06:13:55.226Z,1.87
2023-04-05T06:16:24.245Z,2.33
2023-04-05T06:18:52.840Z,2.60
2023-04-05T06:21:23.300Z,2.10
2023-04-05T06:23:51.665Z,1.53
2023-04-05T06:26:23.288Z,1.50
2023-04-05T06:28:51.612Z,1.70
2023-04-05T06:31:22.932Z,1.80
2023-04-05T06:33:57.133Z,1.50
2023-04-05T06:36:27.682Z,1.70
2023-04-05T06:38:56.103Z,1.33
2023-04-05T06:41:24.877Z,1.80
2023-04-05T06:43:53.101Z,1.73
2023-04-05T06:46:21.885Z,1.50
2023-04-05T06:48:50.888Z,1.50
2023-04-05T06:51:20.405Z,1.33
2023-04-05T06:53:50.180Z,1.53
2023-04-05T06:56:23.777Z,1.67
2023-04-05T06:58:52.365Z,1.60
2023-04-05T07:01:20.821Z,1.73
2023-04-05T07:03:49.033Z,2.20
2023-04-05T07:06:17.309Z,1.70
2023-04-05T07:08:45.464Z,1.73
2023-04-05T07:11:20.403Z,1.67
2023-04-05T07:13:48.860Z,1.80
2023-04-05T07:16:19.450Z,1.70
2023-04-05T07:18:47.775Z,1.60
2023-04-05T07:21:16.415Z,2.00
2023-04-05T07:23:44.697Z,1.50
2023-04-05T07:26:23.163Z,1.70
2023-04-05T07:28:51.571Z,1.60
2023-04-05T07:31:19.871Z,1.43
2023-04-05T07:33:48.189Z,1.33
2023-04-05T07:36:17.205Z,1.73
2023-04-05T07:38:46.092Z,1.50
2023-04-05T07:41:17.192Z,1.33
2023-04-05T07:43:50.727Z,1.60
2023-04-05T07:46:19.138Z,1.83
2023-04-05T07:48:49.401Z,0.97
2023-04-05T07:51:17.695Z,1.30
2023-04-05T07:53:46.281Z,1.43
2023-04-05T07:56:17.566Z,1.40
2023-04-05T07:58:48.311Z,1.53
2023-04-05T08:01:16.636Z,1.50
2023-04-05T08:03:44.787Z,2.20
2023-04-05T08:06:14.749Z,1.60
2023-04-05T08:08:43.008Z,1.60
2023-04-05T08:11:13.141Z,1.43
2023-04-05T08:13:42.035Z,1.50
2023-04-05T08:16:14.096Z,1.70
2023-04-05T08:18:42.376Z,1.33
2023-04-05T08:21:10.822Z,1.40
2023-04-05T08:23:39.217Z,1.40
2023-04-05T08:26:08.032Z,1.33
2023-04-05T08:28:36.839Z,2.00
2023-04-05T08:31:05.131Z,1.40
2023-04-05T08:33:34.766Z,1.63
2023-04-05T08:36:06.665Z,1.50
2023-04-05T08:38:35.101Z,1.77
2023-04-05T08:41:10.287Z,1.53
2023-04-05T08:43:59.464Z,1.80
2023-04-05T08:46:31.592Z,1.60
2023-04-05T08:49:02.168Z,1.37
2023-04-05T08:51:31.306Z,1.53
2023-04-05T08:54:06.565Z,1.20
2023-04-05T08:56:36.503Z,2.07
2023-04-05T08:59:06.802Z,1.60
2023-04-05T09:01:40.565Z,1.70
2023-04-05T09:04:13.652Z,2.37
2023-04-05T09:06:41.897Z,1.70
2023-04-05T09:09:10.607Z,1.20
2023-04-05T09:11:39.616Z,1.40
2023-04-05T09:14:11.801Z,1.37
2023-04-05T09:16:42.189Z,1.70
2023-04-05T09:19:12.484Z,1.63
2023-04-05T09:22:00.681Z,1.43
2023-04-05T09:24:35.133Z,1.90
2023-04-05T09:27:08.789Z,0.90
2023-04-05T09:29:37.454Z,1.20
2023-04-05T09:32:07.085Z,1.30
2023-04-05T09:34:38.280Z,1.40
2023-04-05T09:37:14.769Z,1.50
2023-04-05T09:39:43.928Z,1.37
2023-04-05T09:42:15.912Z,1.47
2023-04-05T09:44:54.207Z,1.40
2023-04-05T09:47:25.248Z,1.20
2023-04-05T09:49:56.114Z,1.50
2023-04-05T09:52:26.095Z,1.80
2023-04-05T09:54:56.757Z,1.10
2023-04-05T09:57:26.650Z,1.00
2023-04-05T09:59:56.783Z,1.47
2023-04-05T10:02:25.792Z,1.30
2023-04-05T10:04:56.144Z,1.40
2023-04-05T10:07:24.526Z,1.50
2023-04-05T10:09:52.739Z,1.10
2023-04-05T10:12:28.024Z,1.30
2023-04-05T10:14:58.592Z,1.30
2023-04-05T10:17:30.640Z,1.87
2023-04-05T10:20:11.809Z,1.03
2023-04-05T10:22:49.976Z,1.20
2023-04-05T10:25:27.440Z,1.13
2023-04-05T10:28:06.154Z,1.20
2023-04-05T10:30:38.894Z,1.30
2023-04-05T10:33:15.005Z,1.20
2023-04-05T10:35:57.499Z,1.13
2023-04-05T10:38:30.601Z,1.27
2023-04-05T10:41:09.725Z,1.20
2023-04-05T10:43:40.743Z,1.30
2023-04-05T10:46:09.926Z,1.60
2023-04-05T10:48:46.065Z,1.33
2023-04-05T10:51:18.513Z,1.43
2023-04-05T10:53:50.576Z,1.37
2023-04-05T10:56:23.198Z,1.60
2023-04-05T10:58:53.244Z,1.70
2023-04-05T11:01:22.476Z,1.30
2023-04-05T11:04:00.530Z,1.40
2023-04-05T11:06:35.515Z,1.33
2023-04-05T11:09:21.637Z,1.70
2023-04-05T11:11:52.457Z,1.03
2023-04-05T11:14:22.588Z,1.30
2023-04-05T11:16:54.751Z,1.33
2023-04-05T11:19:43.636Z,1.30
2023-04-05T11:22:13.733Z,1.80
2023-04-05T11:24:53.392Z,1.60
2023-04-05T11:27:27.188Z,1.40
2023-04-05T11:29:59.491Z,1.50
2023-04-05T11:32:43.096Z,1.40
2023-04-05T11:35:15.837Z,1.30
2023-04-05T11:38:08.593Z,1.30
2023-04-05T11:40:40.260Z,1.30
2023-04-05T11:43:11.531Z,1.50
2023-04-05T11:45:41.842Z,1.30
2023-04-05T11:48:12.127Z,1.47
2023-04-05T11:50:43.073Z,1.37
2023-04-05T11:53:19.865Z,2.00
2023-04-05T11:55:51.729Z,1.40
2023-04-05T11:58:22.616Z,1.30
2023-04-05T12:01:00.117Z,1.10
2023-04-05T12:03:31.828Z,1.50
2023-04-05T12:06:01.664Z,1.30
2023-04-05T12:08:42.223Z,1.40
2023-04-05T12:11:13.418Z,1.47
2023-04-05T12:13:45.575Z,1.50
2023-04-05T12:16:13.945Z,1.60
2023-04-05T12:18:42.237Z,1.20
2023-04-05T12:21:10.999Z,2.03
2023-04-05T12:23:40.819Z,1.53
2023-04-05T12:26:09.866Z,2.03
2023-04-05T12:28:58.579Z,1.33
2023-04-05T12:31:41.649Z,1.53
2023-04-05T12:34:14.685Z,1.77
2023-04-05T12:36:46.529Z,1.47
2023-04-05T12:39:18.528Z,1.47
2023-04-05T12:41:46.946Z,1.27
2023-04-05T12:44:17.610Z,1.53
2023-04-05T12:46:47.876Z,1.33
2023-04-05T12:49:17.779Z,1.53
2023-04-05T12:51:49.291Z,1.30
2023-04-05T12:54:23.267Z,1.67
2023-04-05T12:56:54.629Z,1.43
2023-04-05T12:59:23.410Z,1.57
2023-04-05T13:01:51.971Z,1.40
2023-04-05T13:04:20.381Z,1.40
2023-04-05T13:06:48.683Z,1.50
2023-04-05T13:09:18.283Z,1.70
2023-04-05T13:11:46.660Z,1.80
2023-04-05T13:14:15.889Z,1.80
2023-04-05T13:16:44.093Z,1.30
2023-04-05T13:19:12.682Z,1.77
2023-04-05T13:21:40.866Z,1.57
2023-04-05T13:24:12.282Z,1.90
2023-04-05T13:26:42.747Z,1.80
2023-04-05T13:29:13.252Z,1.90
2023-04-05T13:31:42.236Z,1.80
2023-04-05T13:34:10.550Z,2.07
2023-04-05T13:36:38.764Z,1.77
2023-04-05T13:39:07.130Z,2.00
2023-04-05T13:41:37.178Z,1.70
2023-04-05T13:44:06.981Z,2.00
2023-04-05T13:46:35.672Z,1.97
2023-04-05T13:49:04.286Z,2.00
2023-04-05T13:51:34.519Z,1.70
2023-04-05T13:54:06.987Z,2.00
2023-04-05T13:56:35.183Z,1.40
2023-04-05T13:59:03.441Z,1.90
2023-04-05T14:01:35.133Z,1.60
2023-04-05T14:04:03.498Z,2.10
2023-04-05T14:06:31.758Z,1.67
2023-04-05T14:08:59.981Z,2.17
2023-04-05T14:11:30.791Z,1.40
2023-04-05T14:13:59.101Z,1.70
2023-04-05T14:16:27.495Z,1.70
2023-04-05T14:18:57.300Z,1.87
2023-04-05T14:21:27.528Z,1.63
2023-04-05T14:23:57.324Z,1.80
2023-04-05T14:26:26.969Z,1.37
2023-04-05T14:28:55.693Z,1.80
2023-04-05T14:31:26.809Z,1.40
2023-04-05T14:33:58.630Z,1.50
2023-04-05T14:36:27.068Z,1.50
2023-04-05T14:38:55.473Z,1.67
2023-04-05T14:41:25.172Z,1.67
2023-04-05T14:44:11.565Z,2.00
2023-04-05T14:46:40.003Z,1.87
2023-04-05T14:49:09.656Z,1.83
2023-04-05T14:51:38.424Z,1.57
2023-04-05T14:54:07.857Z,1.97
2023-04-05T14:56:36.754Z,2.00
2023-04-05T14:59:05.027Z,1.77
2023-04-05T15:01:33.657Z,1.43
2023-04-05T15:04:02.111Z,1.60
2023-04-05T15:06:32.406Z,1.87
2023-04-05T15:09:00.861Z,1.60
2023-04-05T15:11:34.476Z,2.00
2023-04-05T15:14:02.862Z,2.07
2023-04-05T15:16:31.426Z,2.00
2023-04-05T15:19:07.529Z,1.90
2023-04-05T15:21:39.118Z,1.87
2023-04-05T15:24:07.835Z,1.67
2023-04-05T15:26:39.286Z,1.67
2023-04-05T15:29:07.641Z,1.80
2023-04-05T15:31:42.216Z,1.93
2023-04-05T15:34:10.589Z,1.57
2023-04-05T15:36:40.804Z,2.00
2023-04-05T15:39:09.429Z,1.60
2023-04-05T15:41:40.465Z,2.00
2023-04-05T15:44:08.727Z,2.00
2023-04-05T15:46:42.659Z,2.57
2023-04-05T15:49:13.724Z,1.83
2023-04-05T15:51:47.501Z,1.90
2023-04-05T15:54:18.999Z,1.60
2023-04-05T15:56:47.789Z,1.73
2023-04-05T15:59:16.253Z,1.70
2023-04-05T16:01:44.678Z,1.87
2023-04-05T16:04:13.224Z,1.83
2023-04-05T16:06:41.647Z,1.83
2023-04-05T16:09:11.565Z,1.60
2023-04-05T16:11:40.481Z,2.07
2023-04-05T16:14:11.429Z,1.50
2023-04-05T16:16:50.358Z,1.80
2023-04-05T16:19:24.731Z,1.77
2023-04-05T16:21:57.333Z,2.50
2023-04-05T16:24:28.393Z,1.60
2023-04-05T16:26:57.146Z,1.87
2023-04-05T16:29:26.183Z,1.70
2023-04-05T16:31:55.040Z,1.80
2023-04-05T16:34:23.254Z,2.07
2023-04-05T16:36:51.772Z,1.90
2023-04-05T16:39:20.074Z,2.23
2023-04-05T16:41:50.192Z,1.80
2023-04-05T16:44:21.087Z,2.23
2023-04-05T16:46:49.392Z,2.00
2023-04-05T16:49:17.914Z,2.20
2023-04-05T16:51:46.157Z,1.37
2023-04-05T16:54:15.446Z,2.70
2023-04-05T16:56:43.681Z,1.70
2023-04-05T16:59:15.724Z,2.33
2023-04-05T17:01:44.728Z,2.00
2023-04-05T17:04:13.088Z,2.07
2023-04-05T17:06:42.592Z,2.03
2023-04-05T17:09:10.889Z,2.20
2023-04-05T17:11:39.450Z,1.47
2023-04-05T17:14:08.656Z,2.17
2023-04-05T17:16:39.514Z,1.77
2023-04-05T17:19:09.213Z,2.37
2023-04-05T17:21:37.874Z,1.80
2023-04-05T17:24:06.530Z,2.17
2023-04-05T17:26:34.701Z,2.07
2023-04-05T17:29:03.257Z,2.37
2023-04-05T17:31:33.401Z,1.97
2023-04-05T17:34:04.763Z,2.33
2023-04-05T17:36:33.691Z,2.27
2023-04-05T17:39:02.148Z,2.70
2023-04-05T17:41:30.625Z,1.80
2023-04-05T17:44:02.380Z,2.10
2023-04-05T17:46:41.559Z,2.20
2023-04-05T17:49:15.072Z,2.20
2023-04-05T17:51:43.499Z,1.80
2023-04-05T17:54:16.760Z,2.20
2023-04-05T17:56:46.102Z,1.77
2023-04-05T17:59:14.476Z,2.10
2023-04-05T18:01:42.895Z,1.90
2023-04-05T18:04:12.685Z,2.10
2023-04-05T18:07:02.760Z,2.30
2023-04-05T18:09:33.304Z,2.30
2023-04-05T18:12:05.404Z,2.60
2023-04-05T18:14:36.289Z,2.23
2023-04-05T18:17:07.336Z,2.60
2023-04-05T18:19:35.791Z,2.30
2023-04-05T18:22:05.558Z,3.20
2023-04-05T18:24:33.845Z,3.30
2023-04-05T18:27:02.248Z,2.93
2023-04-05T18:29:30.937Z,2.80
2023-04-05T18:32:00.176Z,3.30
2023-04-05T18:34:28.433Z,2.83
2023-04-05T18:36:56.913Z,3.13
2023-04-05T18:39:27.752Z,2.50
2023-04-05T18:41:56.115Z,2.73
2023-04-05T18:44:24.363Z,2.50
2023-04-05T18:46:52.759Z,2.53
2023-04-05T18:49:22.548Z,2.70
2023-04-05T18:51:50.889Z,2.87
2023-04-05T18:54:20.433Z,3.10
2023-04-05T18:56:50.215Z,2.90
2023-04-05T18:59:18.781Z,2.60
2023-04-05T19:01:47.194Z,2.70
2023-04-05T19:04:16.477Z,2.87
2023-04-05T19:06:44.791Z,3.07
2023-04-05T19:09:13.136Z,3.40
2023-04-05T19:11:42.576Z,3.37
2023-04-05T19:14:13.596Z,3.63
2023-04-05T19:16:42.467Z,3.27
2023-04-05T19:19:10.868Z,2.80
2023-04-05T19:21:39.344Z,3.10
2023-04-05T19:24:09.888Z,3.50
2023-04-05T19:26:42.383Z,3.10
2023-04-05T19:29:12.444Z,2.83
2023-04-05T19:31:41.780Z,3.00
2023-04-05T19:34:11.241Z,2.93
2023-04-05T19:36:50.979Z,2.63
2023-04-05T19:39:22.157Z,3.30
2023-04-05T19:41:52.595Z,3.37
2023-04-05T19:44:39.973Z,3.17
2023-04-05T19:47:11.940Z,2.73
2023-04-05T19:49:43.064Z,2.70
2023-04-05T19:52:15.258Z,2.97
2023-04-05T19:54:44.689Z,2.90
2023-04-05T19:57:20.581Z,2.77
2023-04-05T19:59:55.011Z,2.90
2023-04-05T20:02:48.704Z,3.17
2023-04-05T20:05:56.232Z,2.70
2023-04-05T20:08:25.690Z,2.20
2023-04-05T20:10:55.367Z,2.60
2023-04-05T20:13:27.320Z,2.90
2023-04-05T20:15:57.895Z,2.90
2023-04-05T20:18:27.665Z,3.10
2023-04-05T20:20:55.992Z,2.90
2023-04-05T20:23:30.568Z,3.40
2023-04-05T20:25:58.943Z,2.70
2023-04-05T20:28:54.684Z,3.00
2023-04-05T20:31:26.068Z,3.00
2023-04-05T20:33:56.427Z,2.90
2023-04-05T20:36:32.355Z,2.70
2023-04-05T20:39:01.481Z,3.40
2023-04-05T20:41:31.808Z,2.90
2023-04-05T20:44:00.798Z,3.33
2023-04-05T20:46:30.876Z,2.80
2023-04-05T20:48:59.808Z,2.70
2023-04-05T20:51:35.517Z,2.60
2023-04-05T20:54:03.749Z,2.70
2023-04-05T20:56:32.472Z,2.47
2023-04-05T21:01:50.792Z,3.13
2023-04-05T21:04:19.081Z,2.80
2023-04-05T21:06:47.313Z,3.10
2023-04-05T21:09:15.626Z,2.97
2023-04-05T21:11:44.874Z,2.80
2023-04-05T21:14:14.185Z,2.90
2023-04-05T21:16:44.768Z,2.67
2023-04-05T21:19:14.400Z,2.50
2023-04-05T21:21:46.277Z,2.93
2023-04-05T21:24:16.167Z,2.50
2023-04-05T21:26:45.080Z,2.90
2023-04-05T21:29:14.629Z,2.43
2023-04-05T21:31:43.613Z,2.67
2023-04-05T21:34:13.245Z,2.70
2023-04-05T21:36:48.083Z,2.80
2023-04-05T21:39:16.332Z,2.60
2023-04-05T21:41:45.353Z,3.30
2023-04-05T21:44:14.990Z,2.30
2023-04-05T21:46:43.333Z,2.67
2023-04-05T21:49:11.509Z,2.33
2023-04-05T21:51:47.363Z,2.50
2023-04-05T21:54:15.628Z,2.70
2023-04-05T21:56:44.386Z,2.87
2023-04-05T21:59:12.704Z,2.43
2023-04-05T22:01:52.845Z,2.60
2023-04-05T22:04:21.161Z,2.03
2023-04-05T22:06:50.754Z,2.60
2023-04-05T22:09:19.024Z,2.07
2023-04-05T22:11:47.665Z,2.60
2023-04-05T22:14:16.214Z,2.30
2023-04-05T22:16:54.169Z,2.60
2023-04-05T22:19:22.589Z,2.17
2023-04-05T22:21:55.231Z,2.70
2023-04-05T22:24:25.913Z,2.43
2023-04-05T22:26:56.476Z,2.57
2023-04-05T22:29:24.928Z,2.40
2023-04-05T22:31:53.260Z,2.77
2023-04-05T22:34:21.619Z,2.63
2023-04-05T22:36:51.384Z,2.40
2023-04-05T22:39:19.606Z,2.60
2023-04-05T22:41:47.886Z,2.87
2023-04-05T22:44:16.421Z,2.60
2023-04-05T22:46:44.698Z,2.50
2023-04-05T22:49:12.925Z,2.37
2023-04-05T22:51:46.894Z,2.57
2023-04-05T22:54:16.653Z,2.43
2023-04-05T22:56:47.265Z,2.73
2023-04-05T22:59:16.401Z,2.30
2023-04-05T23:01:44.926Z,2.30
2023-04-05T23:04:13.199Z,2.27
2023-04-05T23:06:44.529Z,2.33
2023-04-05T23:09:12.859Z,1.80
2023-04-05T23:11:44.625Z,1.87
2023-04-05T23:14:12.901Z,2.20
2023-04-05T23:16:41.607Z,2.00
2023-04-05T23:19:09.988Z,1.90
2023-04-05T23:21:38.569Z,2.00
2023-04-05T23:24:07.233Z,1.87
2023-04-05T23:26:35.657Z,2.30
2023-04-05T23:29:05.593Z,2.10
2023-04-05T23:31:34.497Z,2.67
2023-04-05T23:34:24.529Z,1.90
2023-04-05T23:36:53.041Z,2.10
2023-04-05T23:39:21.475Z,2.40
2023-04-05T23:41:49.763Z,2.60
2023-04-05T23:44:19.420Z,2.13
2023-04-05T23:46:47.648Z,2.07
2023-04-05T23:49:16.140Z,2.23
2023-04-05T23:51:44.504Z,2.40
2023-04-05T23:54:15.767Z,2.13
2023-04-05T23:56:44.090Z,2.50
2023-04-05T23:59:13.029Z,2.10
